Time;durP1;ratioP1;P1;durP2;ratioP2;P2;SDS_P1;SDS_P2;PMS_P1;PMS_P2;Temp;Humidity;BMP_temperature;BMP_pressure;BME280_temperature;BME280_humidity;BME280_pressure;Samples;Min_cycle;Max_cycle;Signal;HPM_P1;HPM_P2
2024/02/14 00:01:51;;;;;;;3.70;2.57;;;16.80;60.50;;;;;;5075322;28;20453;-75
2024/02/14 00:04:19;;;;;;;3.67;2.80;;;16.80;60.70;;;;;;5064796;28;20529;-74
2024/02/14 00:06:48;;;;;;;3.20;2.50;;;16.70;60.40;;;;;;5075022;28;20532;-74
2024/02/14 00:09:16;;;;;;;2.93;2.63;;;16.80;60.60;;;;;;5074833;28;20445;-75
2024/02/14 00:11:45;;;;;;;3.43;2.83;;;16.70;60.80;;;;;;5062236;28;20492;-75
2024/02/14 00:14:13;;;;;;;4.63;3.00;;;16.70;60.70;;;;;;5071058;28;20487;-74
2024/02/14 00:16:41;;;;;;;4.60;3.10;;;16.70;60.50;;;;;;5074647;28;20528;-74
2024/02/14 00:19:09;;;;;;;4.87;2.70;;;16.70;60.50;;;;;;5075783;28;20442;-74
2024/02/14 00:21:38;;;;;;;5.27;2.67;;;16.70;60.70;;;;;;5075004;28;20543;-74
2024/02/14 00:24:08;;;;;;;2.93;2.60;;;16.70;60.50;;;;;;5075304;28;20465;-74
2024/02/14 00:26:37;;;;;;;3.77;2.57;;;16.70;60.40;;;;;;5074683;28;20457;-74
2024/02/14 00:29:05;;;;;;;2.80;2.57;;;16.60;60.70;;;;;;5069446;28;20468;-75
2024/02/14 00:31:33;;;;;;;3.27;2.97;;;16.60;60.80;;;;;;5068169;28;20473;-74
2024/02/14 00:34:02;;;;;;;4.70;3.30;;;16.60;60.80;;;;;;5073381;28;20480;-75
2024/02/14 00:36:31;;;;;;;4.27;2.63;;;16.60;60.80;;;;;;5074521;28;20456;-74
2024/02/14 00:38:59;;;;;;;5.80;3.00;;;16.70;60.90;;;;;;5074098;28;20442;-75
2024/02/14 00:41:29;;;;;;;2.67;2.47;;;16.60;60.90;;;;;;5068621;28;20474;-74
2024/02/14 00:43:57;;;;;;;5.13;2.70;;;16.60;61.10;;;;;;5074224;28;20476;-74
2024/02/14 00:46:25;;;;;;;3.10;2.80;;;16.60;60.90;;;;;;5072829;28;20450;-74
2024/02/14 00:48:54;;;;;;;5.80;2.93;;;16.60;61.10;;;;;;5071130;28;20469;-74
2024/02/14 00:51:22;;;;;;;4.27;3.10;;;16.60;61.20;;;;;;5074163;28;20469;-75
2024/02/14 00:53:50;;;;;;;2.93;2.63;;;16.60;61.20;;;;;;5064017;28;20443;-77
2024/02/14 00:56:18;;;;;;;4.47;2.80;;;16.60;61.40;;;;;;5070096;28;20499;-75
2024/02/14 00:58:48;;;;;;;4.10;2.73;;;16.60;61.40;;;;;;5071652;28;20465;-75
2024/02/14 01:01:16;;;;;;;4.67;3.40;;;16.60;61.50;;;;;;5074251;28;20465;-74
2024/02/14 01:03:43;;;;;;;3.47;2.83;;;16.60;61.50;;;;;;5057403;28;20434;-74
2024/02/14 01:06:11;;;;;;;3.07;2.43;;;16.60;61.60;;;;;;5073834;28;20532;-75
2024/02/14 01:08:39;;;;;;;5.07;2.57;;;16.60;61.60;;;;;;5073539;28;20536;-75
2024/02/14 01:11:07;;;;;;;2.70;2.50;;;16.60;61.60;;;;;;5073702;28;20457;-74
2024/02/14 01:13:35;;;;;;;5.27;2.63;;;16.60;61.70;;;;;;5067873;28;20482;-75
2024/02/14 01:16:05;;;;;;;2.73;2.50;;;16.60;61.60;;;;;;5073986;28;20544;-75
2024/02/14 01:18:33;;;;;;;3.10;2.80;;;16.60;61.70;;;;;;5074160;28;20528;-75
2024/02/14 01:21:02;;;;;;;6.53;3.07;;;16.60;61.80;;;;;;5073549;28;20461;-75
2024/02/14 01:23:30;;;;;;;3.63;2.50;;;16.60;61.70;;;;;;5073692;28;20525;-75
2024/02/14 01:25:58;;;;;;;4.03;2.93;;;16.60;61.90;;;;;;5073568;28;20441;-75
2024/02/14 01:28:26;;;;;;;2.90;2.70;;;16.60;61.90;;;;;;5073205;28;20472;-74
2024/02/14 01:30:56;;;;;;;4.83;2.57;;;16.60;61.80;;;;;;5065820;28;20466;-75
2024/02/14 01:33:25;;;;;;;2.80;2.60;;;16.60;62.00;;;;;;5073325;28;20556;-75
2024/02/14 01:35:53;;;;;;;3.60;2.60;;;16.60;62.00;;;;;;5073394;28;20488;-74
2024/02/14 01:38:21;;;;;;;3.07;2.87;;;16.60;62.00;;;;;;5072652;28;20437;-75
2024/02/14 01:40:49;;;;;;;3.17;2.87;;;16.60;62.00;;;;;;5072386;28;20493;-76
2024/02/14 01:43:18;;;;;;;3.30;2.97;;;16.50;62.10;;;;;;5073449;28;20521;-74
2024/02/14 01:45:45;;;;;;;3.47;3.13;;;16.50;62.10;;;;;;5073288;28;20446;-75
2024/02/14 01:48:18;;;;;;;2.80;2.60;;;16.60;62.70;;;;;;5073382;28;20477;-75
2024/02/14 01:50:48;;;;;;;5.17;2.77;;;16.50;61.90;;;;;;5072992;28;20461;-75
2024/02/14 01:53:15;;;;;;;3.83;2.67;;;16.60;62.00;;;;;;5067775;28;20474;-75
2024/02/14 01:55:45;;;;;;;4.97;3.10;;;16.60;62.10;;;;;;5073260;28;20537;-75
2024/02/14 01:58:13;;;;;;;4.67;2.83;;;16.50;62.00;;;;;;5073089;28;20430;-75
2024/02/14 02:00:41;;;;;;;3.07;2.87;;;16.50;62.10;;;;;;5072560;28;20489;-75
2024/02/14 02:03:10;;;;;;;6.20;4.17;;;16.50;62.00;;;;;;5072706;28;20446;-75
2024/02/14 02:05:38;;;;;;;5.97;3.73;;;16.50;62.00;;;;;;5072968;28;20501;-75
2024/02/14 02:08:09;;;;;;;5.57;4.83;;;16.50;62.10;;;;;;5072979;28;20465;-75
2024/02/14 02:10:38;;;;;;;8.40;5.93;;;16.50;62.30;;;;;;5072753;28;20469;-75
2024/02/14 02:13:06;;;;;;;9.40;5.70;;;16.50;61.90;;;;;;5072581;28;20552;-75
2024/02/14 02:15:33;;;;;;;8.67;6.40;;;16.50;62.10;;;;;;5072900;28;20532;-75
2024/02/14 02:18:01;;;;;;;7.10;6.10;;;16.50;62.00;;;;;;5072461;28;20469;-75
2024/02/14 02:20:29;;;;;;;7.77;6.60;;;16.50;62.00;;;;;;5072284;28;20442;-75
2024/02/14 02:22:59;;;;;;;9.23;6.43;;;16.40;62.00;;;;;;5072612;28;20472;-75
2024/02/14 02:25:27;;;;;;;10.73;6.80;;;16.50;62.10;;;;;;5072951;28;20499;-75
2024/02/14 02:27:56;;;;;;;8.37;6.77;;;16.50;62.10;;;;;;5070852;28;20484;-75
2024/02/14 02:30:25;;;;;;;12.83;7.13;;;16.50;62.10;;;;;;5073138;28;20450;-75
2024/02/14 02:32:53;;;;;;;10.70;7.70;;;16.50;62.10;;;;;;5065997;28;20565;-74
2024/02/14 02:35:21;;;;;;;13.80;8.20;;;16.50;62.10;;;;;;5070456;28;20545;-75
2024/02/14 02:37:50;;;;;;;11.40;7.67;;;16.50;62.10;;;;;;5055223;28;20462;-74
2024/02/14 02:40:21;;;;;;;13.90;7.50;;;16.50;62.10;;;;;;5072323;28;20482;-75
2024/02/14 02:42:50;;;;;;;11.67;8.17;;;16.50;62.20;;;;;;5072324;28;20425;-75
2024/02/14 02:45:18;;;;;;;10.70;7.80;;;16.50;61.90;;;;;;5072358;28;20442;-74
2024/02/14 02:47:46;;;;;;;13.17;8.90;;;16.50;62.30;;;;;;5072550;28;20450;-74
2024/02/14 02:50:14;;;;;;;11.90;7.93;;;16.50;62.20;;;;;;5071713;28;20429;-74
2024/02/14 02:52:42;;;;;;;10.07;7.80;;;16.50;62.10;;;;;;5071773;28;20568;-73
2024/02/14 02:55:10;;;;;;;10.43;7.67;;;16.50;62.40;;;;;;5072016;28;20528;-74
2024/02/14 02:57:41;;;;;;;14.63;8.33;;;16.50;62.30;;;;;;5071787;28;20438;-74
2024/02/14 03:00:11;;;;;;;11.13;7.73;;;16.50;62.40;;;;;;5071764;28;20480;-75
2024/02/14 03:02:41;;;;;;;11.10;7.40;;;16.50;62.30;;;;;;5071900;28;20520;-74
2024/02/14 03:05:10;;;;;;;13.30;8.00;;;16.40;62.10;;;;;;5071702;28;20438;-74
2024/02/14 03:07:39;;;;;;;12.03;8.20;;;16.40;62.30;;;;;;5071882;28;20456;-76
2024/02/14 03:10:08;;;;;;;11.03;8.20;;;16.50;62.30;;;;;;5071052;28;20442;-75
2024/02/14 03:12:36;;;;;;;10.60;7.70;;;16.40;62.20;;;;;;5071576;28;20472;-76
2024/02/14 03:15:09;;;;;;;13.33;8.20;;;16.50;62.20;;;;;;5075883;28;20450;-76
2024/02/14 03:17:38;;;;;;;10.80;7.07;;;16.40;62.00;;;;;;5077995;28;20448;-75
2024/02/14 03:20:12;;;;;;;12.00;8.23;;;16.40;62.30;;;;;;5079181;28;20444;-75
2024/02/14 03:22:45;;;;;;;10.63;7.90;;;16.40;62.10;;;;;;5079692;28;20449;-76
2024/02/14 03:25:13;;;;;;;13.13;8.00;;;16.40;62.30;;;;;;5076401;28;20445;-76
2024/02/14 03:27:41;;;;;;;11.57;7.30;;;16.40;62.20;;;;;;5076406;28;20438;-76
2024/02/14 03:30:12;;;;;;;9.67;7.60;;;16.40;62.30;;;;;;5076477;28;20533;-75
2024/02/14 03:32:40;;;;;;;9.63;7.50;;;16.40;62.40;;;;;;5075800;28;20544;-76
2024/02/14 03:35:10;;;;;;;9.27;7.00;;;16.40;62.30;;;;;;5076250;28;20438;-74
2024/02/14 03:37:39;;;;;;;8.20;7.00;;;16.40;62.40;;;;;;5075906;28;20537;-75
2024/02/14 03:40:08;;;;;;;7.50;6.47;;;16.40;62.30;;;;;;5063227;28;20445;-75
2024/02/14 03:42:38;;;;;;;9.67;7.70;;;16.40;62.40;;;;;;5075541;28;20458;-74
2024/02/14 03:45:07;;;;;;;7.40;5.93;;;16.40;62.30;;;;;;5075788;28;20484;-75
2024/02/14 03:47:39;;;;;;;7.67;6.60;;;16.40;62.40;;;;;;5075751;28;20439;-76
2024/02/14 03:50:08;;;;;;;7.80;6.60;;;16.40;62.20;;;;;;5075442;28;20422;-76
2024/02/14 03:52:36;;;;;;;10.20;7.00;;;16.40;62.40;;;;;;5075384;28;20517;-76
2024/02/14 03:55:05;;;;;;;7.80;6.73;;;16.50;62.40;;;;;;5075585;28;20607;-73
2024/02/14 03:57:35;;;;;;;8.17;6.57;;;16.40;62.40;;;;;;5075552;28;20445;-74
2024/02/14 04:00:07;;;;;;;8.70;7.00;;;16.40;62.20;;;;;;5075382;28;20432;-74
2024/02/14 04:02:36;;;;;;;6.40;5.80;;;16.40;62.50;;;;;;5073051;28;20486;-75
2024/02/14 04:05:08;;;;;;;8.30;6.70;;;16.40;62.50;;;;;;5073450;28;20437;-75
2024/02/14 04:07:37;;;;;;;8.43;6.70;;;16.40;62.60;;;;;;5072026;28;20445;-75
2024/02/14 04:10:06;;;;;;;8.80;6.53;;;16.50;62.50;;;;;;5075036;28;20506;-74
2024/02/14 04:12:34;;;;;;;8.20;6.10;;;16.40;62.20;;;;;;5071909;28;20481;-75
2024/02/14 04:15:03;;;;;;;7.20;6.33;;;16.40;62.00;;;;;;5074318;28;20544;-74
2024/02/14 04:17:31;;;;;;;5.90;5.30;;;16.40;62.40;;;;;;5074587;28;20450;-75
2024/02/14 04:20:01;;;;;;;7.60;6.50;;;16.40;62.50;;;;;;5074866;28;20485;-75
2024/02/14 04:22:29;;;;;;;7.57;5.53;;;16.40;62.60;;;;;;5075095;28;21034;-75
2024/02/14 04:24:57;;;;;;;6.50;5.90;;;16.40;62.60;;;;;;5074413;28;20503;-75
2024/02/14 04:27:25;;;;;;;11.33;7.00;;;16.40;62.50;;;;;;5074243;28;20429;-74
2024/02/14 04:29:53;;;;;;;6.47;5.47;;;16.50;62.30;;;;;;5074019;28;21036;-74
2024/02/14 04:32:24;;;;;;;6.33;5.73;;;16.40;62.50;;;;;;5074726;28;20476;-74
2024/02/14 04:34:52;;;;;;;7.47;5.60;;;16.40;62.70;;;;;;5074431;28;20485;-74
2024/02/14 04:37:22;;;;;;;6.53;5.83;;;16.40;62.50;;;;;;5074683;28;20445;-74
2024/02/14 04:39:50;;;;;;;7.33;6.40;;;16.40;62.60;;;;;;5074814;28;20426;-74
2024/02/14 04:42:19;;;;;;;6.37;5.77;;;16.40;62.60;;;;;;5074569;28;20476;-75
2024/02/14 04:44:47;;;;;;;6.20;5.40;;;16.40;62.70;;;;;;5074087;28;20863;-74
2024/02/14 04:47:15;;;;;;;6.57;5.47;;;16.40;62.80;;;;;;5074032;28;20476;-74
2024/02/14 04:49:43;;;;;;;5.50;4.90;;;16.40;62.80;;;;;;5073999;28;20842;-75
2024/02/14 04:52:11;;;;;;;6.10;5.47;;;16.40;62.90;;;;;;5073772;28;20489;-76
2024/02/14 04:54:41;;;;;;;5.80;5.30;;;16.50;62.80;;;;;;5073609;28;20477;-75
2024/02/14 04:57:09;;;;;;;6.20;5.60;;;16.50;62.90;;;;;;5073963;28;20453;-75
2024/02/14 04:59:37;;;;;;;5.90;5.40;;;16.50;62.90;;;;;;5070009;28;20438;-75
2024/02/14 05:02:06;;;;;;;5.53;5.03;;;16.50;62.80;;;;;;5074229;28;20476;-75
2024/02/14 05:04:37;;;;;;;5.43;4.90;;;16.50;62.80;;;;;;5073626;28;20445;-74
2024/02/14 05:07:06;;;;;;;5.73;5.23;;;16.50;62.90;;;;;;5069990;28;20453;-74
2024/02/14 05:09:34;;;;;;;5.37;4.87;;;16.50;63.00;;;;;;5074520;28;20441;-74
2024/02/14 05:12:04;;;;;;;5.83;5.07;;;16.50;63.00;;;;;;5074073;28;20487;-75
2024/02/14 05:14:32;;;;;;;4.93;4.53;;;16.50;63.00;;;;;;5076225;28;20474;-74
2024/02/14 05:17:01;;;;;;;6.00;5.37;;;16.50;62.90;;;;;;5076467;28;20440;-74
2024/02/14 05:19:29;;;;;;;5.20;4.80;;;16.50;62.90;;;;;;5076453;28;20434;-74
2024/02/14 05:21:58;;;;;;;5.67;5.17;;;16.50;63.00;;;;;;5076282;28;20496;-74
2024/02/14 05:24:27;;;;;;;5.53;4.80;;;16.50;63.00;;;;;;5073562;28;20466;-74
2024/02/14 05:26:55;;;;;;;5.43;5.00;;;16.50;63.00;;;;;;5073670;28;20467;-75
2024/02/14 05:29:24;;;;;;;5.40;4.90;;;16.50;63.00;;;;;;5073574;28;20437;-75
2024/02/14 05:31:55;;;;;;;5.20;4.80;;;16.50;63.10;;;;;;5073233;28;20858;-75
2024/02/14 05:34:23;;;;;;;4.83;4.43;;;16.50;63.30;;;;;;5073599;28;20579;-74
2024/02/14 05:36:51;;;;;;;5.17;4.53;;;16.60;63.40;;;;;;5072505;28;20438;-75
2024/02/14 05:39:19;;;;;;;4.80;4.40;;;16.50;63.10;;;;;;5073587;28;20437;-75
2024/02/14 05:41:48;;;;;;;5.43;4.93;;;16.60;63.20;;;;;;5073325;28;20469;-75
2024/02/14 05:44:16;;;;;;;5.27;4.77;;;16.60;63.20;;;;;;5073488;28;20442;-75
2024/02/14 05:46:46;;;;;;;5.20;4.60;;;16.60;63.20;;;;;;5073460;28;20533;-75
2024/02/14 05:49:14;;;;;;;4.27;3.97;;;16.60;63.20;;;;;;5073090;28;20456;-75
2024/02/14 05:51:42;;;;;;;4.67;4.30;;;16.60;63.50;;;;;;5072942;28;20476;-75
2024/02/14 05:54:10;;;;;;;4.43;4.03;;;16.60;63.30;;;;;;5072960;28;20484;-75
2024/02/14 05:56:39;;;;;;;4.77;3.87;;;16.60;63.30;;;;;;5073975;28;20441;-75
2024/02/14 05:59:07;;;;;;;4.13;3.83;;;16.60;63.40;;;;;;5073939;28;20456;-75
2024/02/14 06:01:35;;;;;;;4.57;3.97;;;16.70;63.50;;;;;;5070557;28;20501;-75
2024/02/14 06:04:05;;;;;;;4.90;4.50;;;16.70;63.50;;;;;;5063584;28;20456;-75
2024/02/14 06:06:33;;;;;;;4.03;3.63;;;16.60;63.30;;;;;;5068320;28;20469;-75
2024/02/14 06:09:02;;;;;;;3.97;3.67;;;16.70;63.50;;;;;;5072519;28;20449;-76
2024/02/14 06:11:30;;;;;;;4.20;3.90;;;16.70;63.40;;;;;;5072685;28;20548;-75
2024/02/14 06:13:58;;;;;;;4.50;3.73;;;16.70;63.40;;;;;;5084816;22;20486;-76
2024/02/14 06:16:26;;;;;;;4.17;3.77;;;16.70;63.40;;;;;;5050153;28;20541;-75
2024/02/14 06:18:54;;;;;;;4.07;3.73;;;16.80;63.50;;;;;;5051312;28;20442;-75
2024/02/14 06:21:23;;;;;;;3.90;3.60;;;16.80;63.40;;;;;;5052286;28;20469;-74
2024/02/14 06:23:51;;;;;;;4.73;4.07;;;16.80;63.30;;;;;;5052032;28;20474;-76
2024/02/14 06:26:20;;;;;;;4.33;3.70;;;16.80;63.60;;;;;;5052225;28;20529;-75
2024/02/14 06:28:52;;;;;;;3.27;3.07;;;16.80;63.50;;;;;;5052217;28;20466;-76
2024/02/14 06:31:19;;;;;;;3.90;3.50;;;16.70;63.40;;;;;;5052356;28;20457;-76
2024/02/14 06:33:47;;;;;;;3.50;3.30;;;16.80;63.60;;;;;;5052200;28;20481;-75
2024/02/14 06:36:16;;;;;;;3.93;3.60;;;16.80;63.60;;;;;;5051795;28;20498;-76
2024/02/14 06:38:46;;;;;;;3.40;3.20;;;16.80;63.70;;;;;;5052175;28;20442;-76
2024/02/14 06:41:14;;;;;;;4.30;3.60;;;16.80;63.80;;;;;;5052146;28;20902;-76
2024/02/14 06:43:42;;;;;;;3.47;3.27;;;16.80;63.50;;;;;;5051925;28;20554;-76
2024/02/14 06:46:10;;;;;;;3.57;3.33;;;16.90;63.80;;;;;;5051914;28;20522;-75
2024/02/14 06:48:38;;;;;;;4.03;3.73;;;16.90;63.70;;;;;;5051820;28;20533;-75
2024/02/14 06:51:07;;;;;;;3.30;2.97;;;16.80;63.60;;;;;;5051939;28;20655;-75
2024/02/14 06:53:36;;;;;;;3.30;3.10;;;16.80;63.70;;;;;;5051914;28;20466;-76
2024/02/14 06:56:07;;;;;;;3.23;3.03;;;16.90;63.60;;;;;;5051624;28;20547;-74
2024/02/14 06:58:34;;;;;;;3.40;3.10;;;16.90;63.80;;;;;;5051979;28;20491;-75
2024/02/14 07:01:03;;;;;;;3.13;2.93;;;16.90;63.80;;;;;;5052089;28;20473;-76
2024/02/14 07:03:31;;;;;;;3.70;3.30;;;16.90;63.70;;;;;;5053035;28;20490;-76
2024/02/14 07:06:00;;;;;;;3.30;3.00;;;16.90;63.70;;;;;;5052756;28;20435;-76
2024/02/14 07:08:30;;;;;;;3.20;2.90;;;16.90;63.70;;;;;;5053034;28;20450;-75
2024/02/14 07:10:58;;;;;;;2.90;2.60;;;16.90;63.70;;;;;;5052660;28;20470;-75
2024/02/14 07:13:27;;;;;;;3.13;2.97;;;16.90;63.80;;;;;;5052886;28;20554;-76
2024/02/14 07:15:55;;;;;;;3.30;3.10;;;17.00;63.70;;;;;;5053075;28;20478;-75
2024/02/14 07:18:23;;;;;;;3.30;3.10;;;17.00;63.70;;;;;;5052904;28;20442;-75
2024/02/14 07:20:51;;;;;;;3.07;2.87;;;17.00;63.80;;;;;;5052432;28;20442;-75
2024/02/14 07:23:19;;;;;;;2.83;2.63;;;17.00;63.80;;;;;;5051828;28;20544;-74
2024/02/14 07:25:47;;;;;;;3.07;2.87;;;17.00;63.60;;;;;;5052222;28;20492;-74
2024/02/14 07:28:15;;;;;;;3.20;2.93;;;17.00;63.70;;;;;;5052658;28;20474;-74
2024/02/14 07:30:44;;;;;;;2.83;2.63;;;17.00;63.60;;;;;;5052039;28;20521;-75
2024/02/14 07:33:12;;;;;;;3.07;2.83;;;17.10;63.90;;;;;;5052446;28;20925;-74
2024/02/14 07:35:40;;;;;;;2.97;2.77;;;17.10;64.00;;;;;;5052444;28;20478;-75
2024/02/14 07:38:09;;;;;;;2.67;2.47;;;17.10;64.00;;;;;;5052091;28;20431;-75
2024/02/14 07:40:37;;;;;;;2.77;2.57;;;17.10;63.90;;;;;;5032204;28;20471;-74
2024/02/14 07:43:06;;;;;;;2.60;2.50;;;17.10;63.80;;;;;;5031585;28;20478;-73
2024/02/14 07:45:34;;;;;;;2.73;2.53;;;17.10;63.80;;;;;;5036251;28;20929;-75
2024/02/14 07:48:03;;;;;;;2.90;2.70;;;17.10;63.80;;;;;;5051932;28;20968;-74
2024/02/14 07:50:31;;;;;;;2.80;2.70;;;17.10;63.80;;;;;;5051714;28;20462;-74
2024/02/14 07:52:59;;;;;;;3.20;3.00;;;17.20;63.90;;;;;;5051424;28;20445;-74
2024/02/14 07:55:27;;;;;;;2.63;2.43;;;17.20;63.80;;;;;;5052411;28;20554;-74
2024/02/14 07:57:55;;;;;;;2.80;2.60;;;17.20;63.90;;;;;;5052791;28;20529;-75
2024/02/14 08:00:24;;;;;;;2.70;2.57;;;17.20;63.70;;;;;;5054406;28;20446;-71
2024/02/14 08:02:52;;;;;;;2.60;2.50;;;17.20;63.70;;;;;;5036582;28;20451;-76
2024/02/14 08:05:21;;;;;;;2.43;2.33;;;17.30;63.90;;;;;;5037333;28;20534;-78
2024/02/14 08:07:49;;;;;;;2.90;2.70;;;17.20;63.70;;;;;;5036765;28;20439;-80
2024/02/14 08:10:17;;;;;;;2.40;2.30;;;17.30;63.90;;;;;;5036781;28;20482;-77
2024/02/14 08:12:44;;;;;;;2.87;2.67;;;17.30;63.70;;;;;;5036773;28;20447;-78
2024/02/14 08:15:13;;;;;;;2.73;2.53;;;17.30;63.90;;;;;;5036639;28;20501;-77
2024/02/14 08:17:41;;;;;;;2.97;2.67;;;17.40;63.80;;;;;;5036756;28;20439;-78
2024/02/14 08:20:13;;;;;;;2.70;2.60;;;17.40;63.90;;;;;;5035937;28;20428;-77
2024/02/14 08:22:43;;;;;;;2.90;2.70;;;17.40;63.80;;;;;;5036281;28;20447;-78
2024/02/14 08:25:12;;;;;;;2.70;2.60;;;17.40;63.80;;;;;;5036337;28;20466;-76
2024/02/14 08:27:40;;;;;;;3.50;3.20;;;17.40;63.70;;;;;;5039408;28;20496;-78
2024/02/14 08:30:09;;;;;;;2.60;2.50;;;17.40;63.70;;;;;;5046293;28;20442;-80
2024/02/14 08:32:37;;;;;;;2.60;2.40;;;17.50;63.90;;;;;;5055385;28;20492;-79
2024/02/14 08:35:07;;;;;;;2.53;2.33;;;17.50;63.80;;;;;;5052692;28;20497;-78
2024/02/14 08:37:36;;;;;;;2.57;2.37;;;17.50;64.50;;;;;;5055533;28;21063;-80
2024/02/14 08:40:07;;;;;;;2.50;2.30;;;17.50;63.70;;;;;;5052516;28;20445;-78
2024/02/14 08:42:35;;;;;;;2.27;2.17;;;17.60;63.70;;;;;;5054250;28;20529;-80
2024/02/14 08:45:03;;;;;;;2.43;2.33;;;17.60;63.80;;;;;;5053749;28;20496;-79
2024/02/14 08:47:31;;;;;;;2.60;2.40;;;17.60;63.80;;;;;;5053451;28;20435;-79
2024/02/14 08:50:00;;;;;;;2.97;2.77;;;17.60;63.70;;;;;;5053758;28;20449;-79
2024/02/14 08:52:28;;;;;;;2.33;2.20;;;17.70;63.80;;;;;;5053679;28;20427;-79
2024/02/14 08:54:56;;;;;;;2.50;2.30;;;17.70;63.60;;;;;;5053415;28;20463;-79
2024/02/14 08:57:26;;;;;;;2.67;2.57;;;17.70;63.60;;;;;;5052582;28;20463;-79
2024/02/14 08:59:54;;;;;;;2.30;2.20;;;17.80;63.70;;;;;;5053257;28;20454;-79
2024/02/14 09:02:22;;;;;;;2.30;2.20;;;17.80;63.60;;;;;;5052606;28;20450;-79
2024/02/14 09:04:51;;;;;;;2.33;2.23;;;17.80;63.50;;;;;;5054505;28;20490;-80
2024/02/14 09:07:18;;;;;;;3.20;2.60;;;17.80;63.50;;;;;;5053859;28;20489;-79
2024/02/14 09:09:47;;;;;;;2.27;2.17;;;17.90;63.50;;;;;;5054117;28;20446;-79
2024/02/14 09:12:15;;;;;;;2.83;2.53;;;17.90;63.50;;;;;;5055363;28;20454;-80
2024/02/14 09:14:45;;;;;;;2.23;2.13;;;17.90;63.50;;;;;;5057403;28;20474;-79
2024/02/14 09:17:13;;;;;;;2.10;2.00;;;17.90;63.50;;;;;;5056789;28;20471;-80
2024/02/14 09:19:45;;;;;;;2.03;1.93;;;18.00;63.60;;;;;;5057861;28;20467;-79
2024/02/14 09:22:18;;;;;;;2.20;2.10;;;17.90;63.50;;;;;;5051272;28;21003;-78
2024/02/14 09:24:46;;;;;;;2.13;2.03;;;18.00;63.40;;;;;;5056776;28;20524;-80
2024/02/14 09:27:14;;;;;;;2.10;2.00;;;17.90;63.40;;;;;;5055904;28;20450;-78
2024/02/14 09:29:42;;;;;;;2.50;2.40;;;18.00;63.80;;;;;;5056689;28;20453;-79
2024/02/14 09:32:15;;;;;;;2.00;1.90;;;18.00;63.70;;;;;;5057103;28;20449;-79
2024/02/14 09:34:45;;;;;;;2.10;2.00;;;18.00;63.70;;;;;;5057395;28;20462;-79
2024/02/14 09:37:14;;;;;;;2.10;2.00;;;18.00;63.70;;;;;;5058951;28;20497;-80
2024/02/14 09:39:43;;;;;;;2.00;1.90;;;18.10;63.80;;;;;;5057477;28;20496;-79
2024/02/14 09:42:14;;;;;;;1.80;1.70;;;18.10;63.70;;;;;;5053098;28;20439;-80
2024/02/14 09:44:42;;;;;;;2.40;2.30;;;18.10;63.70;;;;;;5057176;28;20516;-79
2024/02/14 09:47:11;;;;;;;2.27;2.17;;;18.20;63.80;;;;;;5054046;28;20449;-80
2024/02/14 09:49:40;;;;;;;2.33;2.20;;;18.20;63.70;;;;;;5055736;28;20442;-80
2024/02/14 09:52:08;;;;;;;2.10;1.90;;;18.20;63.70;;;;;;5054887;28;20930;-79
2024/02/14 09:54:38;;;;;;;2.07;1.97;;;18.20;63.70;;;;;;5055457;28;20458;-80
2024/02/14 09:57:06;;;;;;;2.43;2.23;;;18.30;63.70;;;;;;5034837;28;20470;-80
2024/02/14 09:59:35;;;;;;;2.10;2.00;;;18.30;63.70;;;;;;5050679;28;20443;-78
2024/02/14 10:02:03;;;;;;;1.93;1.83;;;18.40;63.60;;;;;;5054155;28;20447;-79
2024/02/14 10:04:31;;;;;;;2.20;2.10;;;18.40;63.80;;;;;;5054380;28;20490;-79
2024/02/14 10:07:01;;;;;;;2.10;2.00;;;18.40;63.60;;;;;;5054462;28;20439;-79
2024/02/14 10:09:30;;;;;;;2.20;2.10;;;18.40;63.60;;;;;;5054649;28;20443;-79
2024/02/14 10:11:59;;;;;;;2.77;2.60;;;18.50;63.80;;;;;;5056733;28;20438;-80
2024/02/14 10:14:27;;;;;;;2.20;2.10;;;18.50;63.90;;;;;;5055951;28;20462;-79
2024/02/14 10:16:55;;;;;;;2.10;2.00;;;18.50;63.70;;;;;;5056840;28;20466;-80
2024/02/14 10:19:23;;;;;;;2.10;2.00;;;18.50;63.60;;;;;;5056647;28;20453;-81
2024/02/14 10:21:58;;;;;;;3.23;2.10;;;18.60;63.60;;;;;;5056099;28;20438;-81
2024/02/14 10:24:27;;;;;;;2.43;2.30;;;18.50;63.50;;;;;;5054491;28;20545;-81
2024/02/14 10:26:57;;;;;;;2.40;2.30;;;18.60;63.60;;;;;;5057192;28;20459;-78
2024/02/14 10:29:25;;;;;;;2.07;1.97;;;18.60;63.60;;;;;;5057008;28;20446;-79
2024/02/14 10:31:53;;;;;;;1.93;1.83;;;18.60;63.80;;;;;;5053215;28;20510;-78
2024/02/14 10:34:27;;;;;;;2.43;2.33;;;18.60;63.70;;;;;;5051653;28;20466;-77
2024/02/14 10:36:57;;;;;;;2.33;2.23;;;18.60;63.70;;;;;;5052310;28;20462;-76
2024/02/14 10:39:25;;;;;;;2.30;2.20;;;18.70;63.80;;;;;;5052074;28;20529;-77
2024/02/14 10:41:54;;;;;;;2.27;2.17;;;18.60;63.80;;;;;;5052047;28;20532;-76
2024/02/14 10:44:22;;;;;;;2.50;2.30;;;18.70;63.90;;;;;;5043891;28;20509;-77
2024/02/14 10:46:50;;;;;;;2.30;2.20;;;18.70;63.80;;;;;;5052265;28;20438;-77
2024/02/14 10:49:19;;;;;;;2.27;2.17;;;18.70;63.90;;;;;;5048209;28;20454;-77
2024/02/14 10:51:48;;;;;;;2.43;2.33;;;18.70;64.00;;;;;;5052450;28;20446;-77
2024/02/14 10:54:17;;;;;;;2.23;2.13;;;18.70;64.00;;;;;;5052155;28;20965;-76
2024/02/14 10:56:49;;;;;;;2.33;2.23;;;18.70;64.00;;;;;;5048731;28;20451;-78
2024/02/14 10:59:20;;;;;;;2.63;2.47;;;18.70;64.10;;;;;;5051788;28;20449;-76
2024/02/14 11:01:49;;;;;;;3.30;2.00;;;18.70;64.10;;;;;;5051937;28;20453;-77
2024/02/14 11:04:18;;;;;;;2.80;2.60;;;18.70;64.10;;;;;;5043382;28;20468;-76
2024/02/14 11:06:47;;;;;;;3.00;2.80;;;18.70;64.10;;;;;;5052210;28;20454;-79
2024/02/14 11:09:16;;;;;;;2.90;2.70;;;18.70;64.10;;;;;;5052053;28;20451;-77
2024/02/14 11:11:44;;;;;;;2.20;2.10;;;18.70;64.20;;;;;;5051530;28;20451;-76
2024/02/14 11:14:16;;;;;;;2.63;2.40;;;18.70;64.10;;;;;;5051111;28;20466;-77
2024/02/14 11:16:47;;;;;;;2.80;2.60;;;18.80;64.30;;;;;;5044315;28;20492;-77
2024/02/14 11:19:17;;;;;;;3.03;2.80;;;18.80;64.20;;;;;;5051973;28;20640;-77
2024/02/14 11:21:46;;;;;;;3.33;3.03;;;18.80;64.40;;;;;;5047739;28;20454;-77
2024/02/14 11:24:16;;;;;;;2.83;2.73;;;18.80;64.30;;;;;;5044624;28;20468;-77
2024/02/14 11:26:48;;;;;;;3.07;2.87;;;18.80;64.20;;;;;;5048568;28;20484;-76
2024/02/14 11:29:17;;;;;;;2.80;2.60;;;18.80;64.30;;;;;;5051180;28;20509;-76
2024/02/14 11:31:50;;;;;;;3.03;2.83;;;18.80;64.40;;;;;;5051561;28;20484;-76
2024/02/14 11:34:18;;;;;;;3.60;3.00;;;18.80;64.50;;;;;;5051926;28;20462;-77
2024/02/14 11:36:46;;;;;;;6.23;2.90;;;18.80;64.50;;;;;;5057417;28;20469;-79
2024/02/14 11:39:15;;;;;;;3.00;2.80;;;18.80;64.40;;;;;;5055298;28;20935;-80
2024/02/14 11:41:43;;;;;;;3.10;2.90;;;18.80;64.60;;;;;;5051720;28;20451;-81
2024/02/14 11:44:12;;;;;;;3.80;3.00;;;18.90;64.80;;;;;;5058354;28;20485;-80
2024/02/14 11:46:41;;;;;;;3.53;3.23;;;18.90;64.70;;;;;;5057287;28;20486;-78
2024/02/14 11:49:11;;;;;;;3.67;2.60;;;18.90;64.70;;;;;;5056637;28;20450;-78
2024/02/14 11:51:41;;;;;;;3.80;2.90;;;18.90;64.90;;;;;;5055405;28;20920;-78
2024/02/14 11:54:09;;;;;;;4.40;2.80;;;18.90;64.80;;;;;;5055394;28;20472;-79
2024/02/14 11:56:37;;;;;;;3.43;3.13;;;18.80;65.00;;;;;;5055769;28;20450;-79
2024/02/14 11:59:06;;;;;;;4.07;3.40;;;18.90;65.30;;;;;;5059637;28;20497;-81
2024/02/14 12:01:34;;;;;;;5.27;3.20;;;18.90;65.30;;;;;;5058618;28;20461;-81
2024/02/14 12:04:03;;;;;;;4.83;2.87;;;18.90;65.40;;;;;;5046690;28;20472;-81
2024/02/14 12:06:34;;;;;;;3.17;2.97;;;18.90;65.40;;;;;;5058610;28;20442;-82
2024/02/14 12:09:05;;;;;;;4.10;2.93;;;18.90;65.40;;;;;;5061639;28;20517;-83
2024/02/14 12:11:33;;;;;;;3.40;2.93;;;19.00;65.50;;;;;;5060872;28;20450;-80
2024/02/14 12:14:03;;;;;;;3.20;3.00;;;18.90;65.40;;;;;;5058976;28;20477;-81
2024/02/14 12:16:35;;;;;;;3.40;3.10;;;19.00;65.40;;;;;;5050270;28;20442;-81
2024/02/14 12:19:09;;;;;;;3.00;2.80;;;19.00;65.60;;;;;;5046422;28;20499;-80
2024/02/14 12:21:40;;;;;;;3.57;3.27;;;19.00;65.40;;;;;;5056641;28;20450;-79
2024/02/14 12:24:08;;;;;;;3.37;2.97;;;18.90;65.40;;;;;;5056465;28;20470;-82
2024/02/14 12:26:37;;;;;;;3.40;3.10;;;19.00;65.70;;;;;;5046711;28;20477;-81
2024/02/14 12:29:06;;;;;;;5.73;2.87;;;19.00;65.60;;;;;;5052452;28;20882;-82
2024/02/14 12:31:34;;;;;;;4.50;3.27;;;19.00;65.50;;;;;;5057072;28;20451;-79
2024/02/14 12:34:04;;;;;;;3.37;2.70;;;19.00;65.60;;;;;;5055737;28;20462;-83
2024/02/14 12:36:39;;;;;;;3.37;2.90;;;19.00;65.60;;;;;;5047510;28;20456;-81
2024/02/14 12:39:12;;;;;;;3.03;2.73;;;19.10;65.80;;;;;;5055996;28;20487;-80
2024/02/14 12:41:41;;;;;;;4.27;2.60;;;19.10;65.50;;;;;;5053067;28;20476;-81
2024/02/14 12:44:09;;;;;;;3.30;3.00;;;19.10;65.60;;;;;;5050723;28;20455;-80
2024/02/14 12:46:38;;;;;;;2.93;2.73;;;19.10;65.60;;;;;;5055699;28;20508;-80
2024/02/14 12:49:07;;;;;;;3.70;2.67;;;19.10;65.60;;;;;;5055241;28;20439;-82
2024/02/14 12:51:37;;;;;;;5.63;3.17;;;19.10;65.70;;;;;;5056035;28;20446;-82
2024/02/14 12:54:07;;;;;;;6.00;2.97;;;19.10;65.80;;;;;;5057841;28;20469;-82